Date,TemperatureHighF,TemperatureAvgF,TemperatureLowF,DewpointHighF,DewpointAvgF,DewpointLowF,HumidityHigh,HumidityAvg,HumidityLow,PressureMaxIn,PressureMinIn,WindSpeedMaxMPH,WindSpeedAvgMPH,GustSpeedMaxMPH,PrecipitationSumIn
2014-1-1,62.5,50.2,42.7,44.2,39.1,33.1,79,66,49,30.26,30.15,7,1,8,0.00
2014-1-2,61.9,50.6,40.7,48.3,43.5,37.7,90,77,60,30.25,30.08,5,0,7,0.00
2014-1-3,63.8,51.7,43.7,50.6,44.4,39.3,89,77,59,30.14,29.99,8,1,9,0.00
2014-1-4,62.8,49.8,41.2,47.5,41.0,35.7,94,74,40,30.14,30.00,14,1,14,0.00
2014-1-5,62.6,49.9,40.7,46.2,39.0,30.6,79,67,48,30.26,30.14,6,0,6,0.00
2014-1-6,60.2,51.4,44.0,44.3,39.8,32.8,75,65,54,30.36,30.19,7,0,7,0.00
2014-1-7,62.9,51.1,41.5,45.7,40.9,36.5,86,69,48,30.26,30.12,5,0,9,0.00
2014-1-8,57.0,50.5,44.3,51.9,46.6,38.9,100,87,65,30.28,30.16,7,1,9,0.00
2014-1-9,60.7,51.0,45.2,54.5,48.7,43.6,100,92,79,30.29,30.20,9,2,14,0.00
2014-1-13,60.8,52.0,43.2,49.4,45.6,41.8,96,80,65,30.24,30.19,6,0,6,0.00
2014-1-14,62.6,48.3,37.2,49.7,42.7,34.9,97,82,59,30.31,30.13,5,0,6,0.00
2014-1-15,65.4,50.9,40.9,50.8,43.4,35.6,91,76,57,30.21,30.01,6,0,7,0.00
2014-1-16,66.8,52.1,39.9,47.2,38.5,26.5,86,60,46,30.09,29.92,7,0,7,0.00
2014-1-17,67.4,53.6,44.2,46.1,37.7,29.7,67,55,40,30.05,29.90,7,1,8,0.00
2014-1-18,65.5,53.5,43.7,45.1,38.5,31.3,72,58,40,29.97,29.84,8,1,8,0.00
2014-1-19,66.7,52.9,43.1,44.9,38.4,31.9,72,59,40,29.95,29.83,6,0,6,0.00
2014-1-20,66.3,53.0,43.1,40.3,33.4,25.9,57,48,35,30.25,29.90,7,0,7,0.00
2014-1-21,66.4,52.4,41.8,42.9,35.2,27.8,63,52,38,30.30,30.15,9,1,10,0.00
2014-1-22,64.9,51.4,41.7,38.7,33.0,25.8,64,50,35,30.18,29.94,6,0,7,0.00
2014-1-23,68.0,55.2,40.7,43.1,36.4,30.8,71,51,32,30.04,29.91,14,1,18,0.00
2014-1-24,74.5,63.5,54.8,43.8,36.7,31.8,48,37,26,30.24,30.03,7,1,13,0.00
2014-1-25,70.1,57.7,50.7,43.3,37.2,33.2,61,47,33,30.26,30.09,7,1,10,0.00
2014-1-26,65.3,54.3,46.6,42.0,37.3,32.3,66,53,40,30.15,30.00,7,1,7,0.00
2014-1-27,64.5,53.0,42.7,44.1,39.8,34.4,74,62,46,30.20,30.05,8,1,8,0.00
2014-1-28,66.2,57.0,50.7,49.0,45.4,41.8,78,66,50,30.27,30.16,6,1,9,0.00
2014-1-29,57.5,55.8,52.9,57.5,53.0,43.9,100,91,68,30.19,29.97,14,2,16,0.00
2014-1-30,59.7,53.3,48.0,55.5,50.9,45.4,100,92,73,29.97,29.81,15,1,21,0.00
2014-1-31,56.1,47.9,39.8,50.8,42.0,31.6,100,83,43,30.08,29.90,13,2,13,0.00
2014-2-1,58.1,45.2,35.2,39.7,34.8,31.4,88,69,41,30.16,30.06,10,1,10,0.00
2014-2-2,53.0,45.8,40.1,44.5,39.5,32.8,94,79,66,30.08,29.91,9,2,10,0.00
2014-2-3,56.0,46.3,40.2,45.4,41.4,37.1,99,84,65,30.09,30.00,10,1,12,0.00
2014-2-4,55.5,45.2,36.6,43.5,39.2,34.5,94,80,61,30.21,30.09,9,1,11,0.00
2014-2-5,57.2,47.4,37.2,44.9,40.3,33.7,92,77,60,30.25,30.10,7,1,8,0.00
2014-2-6,49.2,46.3,43.1,49.2,46.2,43.1,100,100,89,30.12,29.97,11,1,11,0.00
2014-2-7,49.9,48.1,46.3,49.9,48.1,46.3,100,100,100,30.16,30.03,17,5,20,0.00
2014-2-8,54.5,52.7,49.6,54.5,52.7,49.6,100,100,100,30.17,30.08,20,7,23,0.00
2014-2-10,62.7,56.3,50.9,60.9,55.9,50.8,100,99,92,30.30,30.21,8,1,9,0.00
2014-2-11,62.5,53.7,45.5,59.0,52.9,45.4,100,97,86,30.30,30.19,6,0,9,0.00
2014-2-12,65.5,56.1,47.8,59.1,53.4,47.8,100,91,74,30.34,30.19,11,2,11,0.00
2014-2-13,68.0,60.1,55.0,63.5,56.9,49.0,100,89,79,30.26,30.10,12,2,13,0.00
2014-2-14,65.0,60.6,57.2,63.1,59.9,57.1,100,98,91,30.20,30.05,10,2,11,0.00
2014-2-15,60.4,56.5,53.9,59.4,56.2,53.9,100,99,89,30.08,29.94,10,2,14,0.00
2014-2-16,63.9,54.8,45.5,56.3,50.9,44.4,100,88,60,30.25,30.03,9,1,12,0.00
2014-2-17,62.9,51.4,43.7,53.3,47.2,42.8,100,87,63,30.20,30.13,9,1,10,0.00
2014-2-18,64.0,52.3,42.2,50.7,46.5,41.5,100,82,54,30.25,30.08,7,1,7,0.00
2014-2-19,62.2,54.0,44.6,57.2,47.3,37.3,100,80,45,30.24,30.10,14,3,17,0.00
2014-2-20,64.3,51.0,39.7,49.8,45.1,39.6,100,82,55,30.27,30.12,8,1,10,0.00
2014-2-21,47.5,46.6,46.1,45.0,44.2,43.3,92,91,90,30.17,30.15,2,0,2,0.00
2014-2-23,69.3,61.6,52.3,56.2,51.7,48.3,87,71,56,30.15,30.09,10,2,12,0.00
2014-2-24,72.3,58.6,47.6,55.8,49.2,41.3,87,72,52,30.20,30.06,7,1,9,0.00
2014-2-25,73.3,59.6,50.0,57.9,50.8,43.1,88,74,54,30.15,30.02,8,1,10,0.00
2014-2-26,62.6,55.3,52.1,57.8,53.5,49.1,100,94,77,30.15,29.88,15,3,19,0.00
2014-2-27,60.7,54.0,50.4,58.4,53.2,49.9,100,97,81,30.10,29.80,14,3,19,0.00
2014-2-28,53.2,50.4,48.4,53.1,50.0,46.9,100,98,86,29.81,29.60,13,2,17,0.00
2014-3-1,66.5,56.6,48.5,56.2,51.8,47.3,100,85,62,30.02,29.74,15,3,16,0.00
2014-3-2,59.1,54.4,50.7,57.5,53.5,50.1,100,97,86,30.34,30.01,13,3,16,0.00
2014-3-3,57.4,53.0,49.0,57.2,53.0,49.0,100,100,96,30.35,30.23,11,1,11,0.00
2014-3-4,62.9,55.7,50.3,61.3,55.5,50.3,100,99,93,30.33,30.21,11,2,14,0.00
2014-3-5,66.5,59.2,52.5,63.6,58.4,52.5,100,97,87,30.29,30.11,16,2,16,0.00
2014-3-6,67.2,58.7,51.0,61.9,56.3,51.0,100,93,69,30.32,30.18,7,2,12,0.00
2014-3-7,68.8,56.1,43.7,58.2,52.2,43.7,100,88,63,30.34,30.23,13,2,16,0.00
2014-3-8,72.2,58.6,45.8,59.5,52.5,42.1,99,81,61,30.36,30.20,8,1,8,0.00
2014-3-9,68.8,61.7,55.2,62.3,57.2,52.6,97,86,64,30.23,30.05,7,1,9,0.00
2014-3-10,64.5,58.8,50.8,58.4,52.8,45.5,100,82,57,30.25,30.06,16,3,18,0.00
2014-3-11,73.5,55.3,40.6,53.8,41.4,29.3,98,65,27,30.20,30.05,13,2,16,0.00
2014-3-12,73.3,60.7,47.5,49.6,39.2,30.2,70,46,27,30.23,30.02,20,4,25,0.00
2014-3-13,75.1,60.5,48.4,60.2,39.6,32.0,71,47,27,30.10,29.97,14,2,14,0.00
2014-3-14,73.7,65.9,55.7,53.9,50.6,43.4,82,59,46,30.22,30.13,11,3,12,0.00
2014-3-15,77.3,62.4,49.2,58.0,50.9,44.6,88,68,41,30.32,30.21,10,1,10,0.00
2014-3-16,82.0,65.9,53.4,61.0,53.8,46.8,82,67,42,30.33,30.09,14,2,14,0.00
2014-3-17,66.8,57.5,47.2,52.5,46.8,41.7,86,69,44,30.15,29.94,18,4,19,0.00
2014-3-18,70.2,54.2,39.3,48.8,42.4,-99.9,92,68,40,30.03,29.90,13,2,16,0.00
2014-3-19,75.2,60.3,48.1,57.2,48.5,38.0,82,66,49,30.15,29.99,10,2,10,0.00
2014-3-20,75.9,61.7,52.7,55.9,50.3,46.1,87,68,41,30.09,29.90,10,2,11,0.00
2014-3-21,76.1,60.8,49.4,57.3,47.8,42.8,90,65,33,30.00,29.87,7,1,7,0.00
2014-3-22,74.5,58.4,43.1,56.0,47.9,40.0,92,70,42,30.09,29.93,7,1,9,0.00
2014-3-23,74.2,60.0,46.8,56.0,48.6,40.3,86,67,48,30.18,30.04,12,2,14,0.00
2014-3-24,79.6,62.8,49.9,55.2,49.7,43.4,87,65,37,30.18,29.97,9,1,9,0.00
2014-3-25,64.3,57.8,51.7,59.4,50.4,40.4,100,78,58,30.04,29.82,11,2,13,0.00
2014-3-26,54.7,51.3,47.9,54.6,51.3,47.9,100,100,100,29.97,29.81,13,3,16,0.00
2014-3-27,60.0,53.8,49.3,55.8,52.3,49.3,100,95,81,30.17,29.97,10,2,12,0.00
2014-3-28,68.7,59.4,52.1,60.3,55.2,51.9,100,87,69,30.23,30.07,12,2,12,0.00
2014-3-29,58.1,53.9,46.5,55.4,53.1,46.4,100,97,88,30.14,30.01,14,3,16,0.00
2014-3-30,63.5,52.5,42.9,56.1,49.0,42.9,100,89,68,30.15,30.05,10,2,12,0.00
2014-3-31,55.7,48.8,44.2,51.9,46.9,44.1,100,93,75,30.10,29.83,13,2,13,0.00
2014-4-1,48.5,44.9,40.9,48.5,44.9,40.9,100,100,100,30.03,29.87,12,2,14,0.00
2014-4-2,61.3,50.3,42.6,53.4,47.6,42.6,100,91,70,30.12,29.94,10,1,12,0.00
2014-4-3,66.8,54.1,44.3,56.1,49.2,44.3,100,85,61,30.17,30.02,9,2,10,0.00
2014-4-4,60.7,51.6,46.1,54.2,49.8,46.1,100,94,76,30.10,30.01,8,1,8,0.00
2014-4-5,69.0,54.2,40.8,57.0,49.3,40.8,100,85,57,30.16,30.07,11,2,15,0.00
2014-4-6,66.9,63.0,52.5,58.6,56.2,50.1,92,79,72,30.13,30.13,0,0,0,0.00
2014-4-7,80.3,71.4,55.1,67.1,61.4,50.0,91,72,58,30.15,30.00,7,1,7,0.00
2014-4-8,83.0,67.9,56.7,66.8,59.5,49.8,91,76,54,30.13,29.96,7,1,7,0.00
2014-4-9,82.5,68.5,56.2,65.7,58.1,49.8,84,70,51,30.05,29.91,7,1,8,0.00
2014-4-10,82.5,66.2,50.5,65.3,57.1,48.0,93,75,41,30.01,29.83,8,1,9,0.00
2014-4-11,78.5,65.2,53.8,63.9,58.2,51.8,99,79,54,29.90,29.75,5,1,7,0.00
2014-4-12,75.4,61.3,49.7,65.2,57.4,49.7,100,88,67,29.88,29.77,11,2,14,0.00
2014-4-13,76.2,59.0,44.7,62.0,51.0,41.1,100,79,40,30.04,29.88,17,3,21,0.00
2014-4-14,81.7,62.5,44.1,63.5,50.1,-99.9,89,67,44,30.11,29.96,8,1,11,0.00
2014-4-15,81.2,65.7,53.9,61.2,55.8,48.0,95,73,39,29.99,29.81,7,1,7,0.00
2014-4-16,79.0,64.4,51.2,60.8,54.3,47.3,91,71,46,29.89,29.75,10,1,12,0.00
2014-4-17,84.5,68.1,54.6,65.6,58.2,51.1,93,73,45,29.82,29.70,10,1,11,0.00
2014-4-18,80.6,65.9,52.7,65.1,59.4,51.3,100,82,55,29.88,29.77,8,1,11,0.00
2014-4-19,77.6,66.1,53.8,59.1,55.7,49.6,95,72,40,30.04,29.82,12,2,13,0.00
2014-4-20,82.2,64.4,47.4,61.0,53.6,45.3,94,71,42,30.11,29.96,9,1,10,0.00
2014-4-21,74.3,65.8,57.8,57.1,50.7,39.3,78,60,35,30.02,29.86,15,2,15,0.00
2014-4-22,67.6,58.9,52.7,53.5,49.8,43.3,98,74,43,30.06,29.88,14,2,18,0.00
2014-4-23,71.2,57.4,43.4,50.4,46.9,42.6,100,71,41,30.13,30.01,11,2,13,0.00
2014-4-24,74.6,61.0,50.6,59.9,53.5,45.5,100,78,52,30.09,29.90,8,2,10,0.00
2014-4-25,56.8,51.6,47.0,56.8,51.6,46.9,100,100,98,29.93,29.77,10,1,12,0.00
2014-4-26,63.1,53.1,44.6,55.8,49.2,42.6,100,88,67,30.06,29.84,10,1,13,0.00
2014-4-27,68.1,55.8,48.2,57.9,51.5,45.6,99,86,65,30.13,30.02,10,1,10,0.00
2014-4-28,73.7,59.1,44.9,58.3,49.8,44.3,100,75,39,30.25,30.11,13,3,16,0.00
2014-4-29,87.8,66.9,48.6,62.0,53.6,44.9,92,66,35,30.22,30.02,11,1,11,0.00
2014-4-30,90.5,71.8,56.4,60.3,51.5,37.4,80,51,31,30.13,29.97,5,1,6,0.00
2014-5-1,92.6,74.0,61.1,66.0,55.8,45.7,71,55,33,30.10,29.96,4,0,4,0.00
2014-5-2,91.8,73.3,58.6,62.0,53.0,45.1,69,51,30,30.02,29.87,7,1,8,0.00
2014-5-3,78.0,65.0,55.8,58.7,52.7,46.4,85,65,44,29.95,29.84,13,3,17,0.00
2014-5-4,74.6,61.9,50.3,60.0,55.1,49.2,96,80,54,30.01,29.90,14,2,14,0.00
2014-5-5,72.4,59.7,52.5,55.7,53.8,52.0,100,83,51,29.99,29.82,19,2,22,0.00
2014-5-6,73.5,60.4,51.6,59.2,53.0,49.0,100,80,46,29.89,29.77,15,2,18,0.00
2014-5-7,78.0,63.0,50.3,62.7,54.2,47.9,94,75,46,29.93,29.82,9,1,12,0.00
2014-5-8,69.7,61.5,54.9,62.4,56.6,51.4,100,85,62,30.04,29.92,9,2,14,0.00
2014-5-9,76.5,64.4,56.0,62.4,57.8,53.1,100,81,50,30.11,29.98,11,1,12,0.00
2014-5-10,71.8,60.0,48.1,54.9,49.4,40.9,100,72,35,30.08,29.96,19,3,28,0.00
2014-5-11,77.3,63.5,49.6,52.4,46.3,39.6,77,55,36,30.10,29.95,22,5,26,0.00
2014-5-12,88.9,69.8,51.2,57.1,47.4,37.8,72,47,25,30.11,29.97,8,1,11,0.00
2014-5-13,93.5,73.9,57.0,77.9,53.3,42.5,100,51,27,30.13,29.99,7,1,7,0.00
2014-5-14,95.7,77.4,63.2,64.3,56.2,46.7,73,50,30,30.09,29.93,8,1,9,0.00
2014-5-15,91.2,78.0,66.5,65.0,56.4,48.1,66,50,24,30.04,29.93,6,1,8,0.00
2014-5-16,94.8,77.6,64.9,58.6,53.7,48.2,65,46,24,29.98,29.82,7,1,9,0.00
2014-5-17,85.5,70.0,58.2,63.5,55.0,-99.9,76,61,44,29.89,29.77,12,2,12,0.00
2014-5-18,82.7,68.3,56.4,60.5,55.5,36.2,82,66,40,29.90,29.78,10,2,16,0.00
2014-5-19,80.3,64.6,55.5,60.8,51.7,-99.9,100,71,35,29.89,29.78,12,2,15,0.00
2014-5-20,73.0,60.9,52.7,60.9,56.1,51.5,100,85,59,29.97,29.85,9,1,12,0.00
2014-5-21,82.9,66.4,51.1,64.4,58.4,51.1,100,79,46,29.94,29.80,11,2,11,0.00
2014-5-22,89.9,72.7,56.0,65.0,60.5,55.5,99,69,38,29.91,29.80,10,2,12,0.00
2014-5-23,92.9,76.2,60.1,72.4,62.5,55.6,90,65,38,29.94,29.77,8,1,9,0.00
2014-5-24,93.5,76.9,60.6,70.7,61.7,-99.9,94,67,40,29.89,29.76,11,1,11,0.00
2014-5-25,94.9,76.4,57.8,72.4,61.2,-99.9,95,65,33,29.88,29.75,6,1,8,0.00
2014-5-26,89.2,70.9,54.6,64.0,9.9,-99.9,87,47,37,29.91,29.79,7,1,8,0.00
2014-5-27,93.2,76.4,61.7,58.4,53.5,46.6,69,48,24,29.94,29.81,9,1,10,0.00
2014-5-28,80.5,65.3,36.8,55.8,42.0,-99.9,89,50,21,30.00,29.86,17,3,18,0.00
2014-5-29,90.5,69.3,50.3,52.8,47.2,41.7,100,49,25,29.90,29.78,7,1,11,0.00
2014-5-30,90.4,72.3,60.4,56.1,48.5,41.6,72,46,21,29.86,29.76,7,1,9,0.00
2014-5-31,90.4,76.1,59.4,58.3,53.4,48.3,80,48,26,29.92,29.78,6,1,7,0.00
2014-6-1,95.7,74.9,54.8,57.3,50.6,40.3,70,45,24,29.84,29.67,7,1,8,0.00
2014-6-2,92.2,73.8,61.2,61.2,52.1,-99.9,74,49,30,29.80,29.70,9,1,10,0.00
2014-6-3,89.5,69.7,50.9,62.8,56.3,47.6,96,66,38,29.89,29.73,8,1,8,0.00
2014-6-4,97.0,75.7,56.9,64.9,58.4,51.9,86,59,30,29.82,29.67,6,1,7,0.00
2014-6-5,98.3,80.1,63.8,65.6,61.0,53.1,84,55,31,29.76,29.61,8,1,9,0.00
2014-6-6,97.0,80.4,65.2,67.7,58.9,46.2,72,49,33,29.74,29.63,8,1,9,0.00
2014-6-7,99.8,79.5,56.3,68.5,63.4,54.0,93,62,29,29.74,29.61,6,1,9,0.00
2014-6-8,104.0,84.6,66.3,67.6,62.6,58.0,84,52,26,29.73,29.61,14,2,17,0.00
2014-6-9,105.0,86.8,72.5,68.5,61.4,51.9,71,46,21,29.67,29.53,9,1,9,0.00
2014-6-10,102.6,84.7,67.4,69.2,60.6,50.7,78,47,26,29.63,29.53,12,2,14,0.00
2014-6-11,90.2,74.3,62.6,68.5,62.8,56.3,89,69,44,29.76,29.62,11,2,12,0.00
2014-6-12,88.9,69.7,42.2,63.4,57.0,38.6,100,68,31,29.87,29.75,14,2,15,0.00
2014-6-13,87.0,71.0,52.1,59.2,52.6,46.1,91,57,26,29.91,29.80,14,2,14,0.00
2014-6-14,88.3,72.8,56.6,57.7,50.5,41.4,69,47,26,29.85,29.67,8,1,9,0.00
2014-6-15,88.8,72.5,55.0,60.3,53.7,43.8,74,53,34,29.69,29.60,6,1,9,0.00
2014-6-16,84.4,68.1,56.7,59.6,54.5,-99.9,86,65,40,29.77,29.64,12,2,14,0.00
2014-6-17,81.4,65.6,43.5,53.2,48.2,39.8,87,57,30,29.86,29.74,13,2,15,0.00
2014-6-18,91.7,73.5,53.2,51.8,47.8,40.6,75,44,20,29.85,29.77,12,2,15,0.00
2014-6-19,97.8,80.2,62.2,58.3,49.1,40.0,57,35,21,29.88,29.80,10,2,10,0.00
2014-6-20,97.8,79.9,61.5,61.8,54.2,46.0,73,43,24,29.86,29.73,9,1,11,0.00
2014-6-21,98.0,79.0,65.8,63.3,52.3,40.8,62,40,28,29.77,29.67,9,1,9,0.00
2014-6-22,96.5,76.3,55.2,61.0,54.6,40.5,80,50,27,29.81,29.69,9,1,9,0.00
2014-6-23,97.1,76.7,55.9,63.9,57.8,50.8,86,56,23,29.83,29.72,8,1,9,0.00
2014-6-24,96.8,79.6,65.0,64.4,59.8,54.6,77,53,31,29.84,29.75,8,1,10,0.00
2014-6-25,85.8,74.1,65.4,68.7,63.5,58.8,87,70,52,29.82,29.76,13,2,16,0.00
2014-6-26,87.0,72.1,62.2,63.9,61.0,57.4,96,72,39,29.86,29.78,13,2,15,0.00
2014-6-27,93.8,75.9,61.3,69.2,64.0,58.0,97,70,35,29.84,29.74,8,1,10,0.00
2014-6-28,93.8,76.9,62.1,66.6,61.3,47.9,100,65,25,29.83,29.73,7,1,9,0.00
2014-6-29,100.3,80.8,63.1,65.5,59.7,51.0,78,51,30,29.83,29.68,12,2,14,0.00
2014-6-30,104.2,85.7,70.1,70.6,63.9,59.6,78,51,28,29.72,29.58,7,1,9,0.00
2014-7-1,100.5,84.1,70.9,66.9,51.1,-99.9,64,43,27,29.68,29.60,11,1,11,0.00
2014-7-2,100.4,80.4,65.4,68.8,61.1,50.5,78,54,31,29.73,29.64,7,1,9,0.00
2014-7-3,98.9,81.4,65.8,73.0,65.2,60.3,86,61,33,29.78,29.69,6,1,9,0.00
2014-7-4,102.3,83.2,65.3,64.2,56.0,-99.9,82,45,21,29.82,29.73,9,1,9,0.00
2014-7-5,102.1,83.0,65.1,62.6,52.8,-99.9,75,39,17,29.93,29.81,9,1,9,0.00
2014-7-6,102.0,82.1,64.9,61.7,47.8,-99.9,68,40,21,29.92,29.75,8,1,9,0.00
2014-7-7,99.3,82.2,67.8,63.4,44.5,-99.9,73,41,27,29.78,29.68,7,0,8,0.00
2014-7-8,102.1,85.9,73.3,65.1,51.7,-99.9,64,42,27,29.76,29.68,11,1,12,0.00
2014-7-9,98.8,81.8,67.6,70.4,62.6,-99.9,72,55,33,29.80,29.67,6,1,10,0.00
2014-7-10,95.7,78.6,65.6,69.1,63.4,56.9,89,63,37,29.79,29.69,11,1,11,0.00
2014-7-11,95.9,77.6,65.1,67.1,52.8,59.6,88,54,36,29.91,29.78,8,1,10,0.00
2014-7-12,97.7,79.1,63.4,68.5,63.7,60.4,92,63,33,29.95,29.81,8,1,10,0.00
2014-7-13,100.3,82.0,63.5,71.5,48.5,60.8,92,52,36,29.88,29.71,8,1,8,0.00
2014-7-14,108.8,87.8,72.1,73.2,66.1,58.3,78,52,27,29.76,29.69,7,1,10,0.00
2014-7-15,100.2,83.4,69.8,73.3,57.0,54.9,96,46,33,29.85,29.74,8,1,10,0.00
2014-7-16,93.9,78.9,68.0,72.7,67.0,61.4,85,68,46,29.86,29.74,8,1,11,0.00
2014-7-17,91.7,74.5,61.9,72.6,58.9,61.4,99,66,52,29.88,29.75,10,1,10,0.00
2014-7-18,94.8,75.9,61.3,71.1,49.9,58.1,98,60,46,29.88,29.75,7,1,10,0.00
2014-7-19,98.3,79.8,64.2,95.9,63.1,57.8,100,62,41,29.83,29.71,8,1,10,0.00
2014-7-20,86.3,74.8,68.3,69.3,62.3,60.6,87,69,51,29.83,29.74,8,1,10,0.00
2014-7-21,90.3,76.2,65.7,72.4,67.0,63.6,96,75,53,29.91,29.80,9,1,11,0.00
2014-7-22,92.7,76.2,65.2,72.9,66.8,56.3,94,75,50,29.95,29.84,8,1,9,0.00
2014-7-23,91.3,73.8,59.9,68.3,63.1,58.2,100,73,41,30.03,29.86,9,1,13,0.00
2014-7-24,96.6,78.3,60.8,96.6,42.7,56.9,100,48,38,29.90,29.69,12,2,16,0.00
2014-7-25,101.8,82.8,67.5,78.4,41.5,52.7,100,30,24,29.77,29.67,9,1,11,0.00
2014-7-26,100.9,81.4,69.8,76.1,37.9,53.1,100,29,27,29.82,29.72,10,1,10,0.00
2014-7-27,98.6,85.1,75.0,69.5,57.6,53.2,54,41,26,29.91,29.80,3,1,0,0.00
2014-7-28,99.7,90.0,78.8,68.8,41.4,49.5,51,27,29,29.91,29.85,8,1,8,0.00
2014-7-29,100.7,84.6,72.9,86.2,33.7,47.4,100,21,25,29.94,29.80,9,1,9,0.00
2014-7-30,105.3,86.0,68.7,69.4,49.0,51.3,58,32,28,29.91,29.80,7,1,9,0.00
2014-7-31,105.4,87.2,70.4,68.4,61.9,59.4,80,48,24,29.87,29.73,7,1,9,0.00
2014-8-1,107.5,87.4,67.6,67.3,60.5,52.4,73,44,21,29.82,29.71,9,1,10,0.00
2014-8-2,105.7,87.8,74.4,64.7,52.1,-17.2,54,34,22,29.83,29.73,7,1,10,0.00
2014-8-3,90.2,77.4,64.3,70.2,63.3,57.8,88,64,46,29.87,29.79,7,1,9,0.00
2014-8-4,77.5,72.0,66.9,71.9,66.3,62.6,92,83,71,29.90,29.81,5,0,5,0.00
2014-8-5,75.4,72.6,69.8,71.9,70.2,67.0,100,92,88,29.99,29.87,5,0,7,0.00
2014-8-6,93.0,78.1,66.2,91.6,69.8,66.2,100,80,52,29.94,29.81,8,1,10,0.00
2014-8-7,97.1,81.3,67.3,75.4,64.9,65.7,95,64,45,29.86,29.72,9,1,10,0.00
2014-8-8,97.0,80.0,68.2,70.7,21.8,55.8,100,21,39,29.82,29.70,9,1,9,0.00
2014-8-9,96.8,79.9,65.4,67.6,34.8,60.3,74,26,33,29.85,29.73,8,1,9,0.00
2014-8-10,93.5,75.1,60.1,68.6,62.6,58.5,95,69,39,29.91,29.80,8,1,10,0.00
2014-8-11,96.0,78.7,62.7,69.1,61.6,52.9,89,59,33,29.86,29.74,9,1,9,0.00
2014-8-12,93.6,77.4,65.0,67.5,60.5,53.1,87,58,35,29.89,29.79,9,1,9,0.00
2014-8-13,91.8,75.5,61.4,70.0,63.4,56.8,93,68,45,29.90,29.79,10,2,15,0.00
2014-8-14,94.9,78.4,62.7,68.2,63.1,56.7,95,63,37,29.87,29.77,8,1,12,0.00
2014-8-15,96.7,79.5,63.5,66.8,60.6,49.9,85,55,34,29.91,29.81,9,1,10,0.00
2014-8-16,95.5,80.1,64.5,64.8,58.6,49.9,79,50,29,29.94,29.82,9,1,9,0.00
2014-8-17,96.3,79.5,62.3,63.2,56.1,49.7,78,47,25,29.93,29.76,8,1,8,0.00
2014-8-18,95.6,78.2,61.5,67.1,59.0,50.6,74,53,34,29.79,29.64,9,1,9,0.00
2014-8-19,92.2,74.0,59.8,69.3,64.0,58.1,98,73,44,29.77,29.64,9,1,10,0.00
2014-8-20,86.7,72.5,61.7,69.0,64.8,61.3,100,79,53,29.85,29.71,11,1,13,0.00
2014-8-21,94.2,75.3,58.1,69.4,64.2,57.5,100,72,41,29.89,29.79,7,1,9,0.00
2014-8-22,91.8,73.9,53.8,67.7,60.3,47.8,85,64,40,29.84,29.73,9,1,10,0.00
2014-8-23,94.0,73.8,56.4,67.1,60.6,55.5,100,68,38,29.86,29.72,7,1,8,0.00
2014-8-24,93.3,77.2,63.4,67.4,61.5,56.1,83,61,37,29.80,29.64,8,1,12,0.00
2014-8-25,86.8,42.3,58.9,67.7,38.3,56.6,100,50,50,29.82,29.70,9,2,12,0.00
2014-8-26,-200.0,0.0,200.0,-99.9,0.0,200.0,0,0,100,29.91,29.78,8,1,11,0.00
2014-8-27,-200.0,0.0,200.0,-99.9,0.0,200.0,0,0,100,29.98,29.84,9,1,9,0.00
2014-8-28,-200.0,0.0,200.0,-99.9,0.0,200.0,0,0,100,29.95,29.77,8,1,10,0.00
2014-8-29,88.2,31.9,76.3,72.5,26.1,64.5,67,23,55,29.85,29.76,6,1,6,0.00
2014-8-30,98.0,81.5,65.9,65.2,61.4,52.1,84,54,27,29.87,29.75,11,1,15,0.00
2014-8-31,95.8,79.4,63.4,64.2,59.4,54.3,76,52,33,29.89,29.77,7,1,8,0.00
2014-9-1,98.6,80.4,64.0,65.4,59.6,53.4,74,51,31,29.82,29.69,7,1,8,0.00
2014-9-2,98.4,82.9,71.6,65.1,59.8,54.2,66,47,33,29.79,29.66,7,1,9,0.00
2014-9-3,94.8,76.8,60.0,68.3,61.9,56.4,89,63,33,29.78,29.61,10,1,10,0.00
2014-9-4,96.0,77.9,61.1,63.5,57.4,53.5,81,53,27,29.72,29.63,6,1,9,0.00
2014-9-5,94.5,77.2,59.9,65.6,58.8,48.7,80,55,36,29.86,29.71,7,1,9,0.00
2014-9-6,94.8,78.8,67.0,65.7,59.8,49.3,73,54,36,29.91,29.80,6,1,8,0.00
2014-9-7,94.4,77.3,62.5,60.8,56.2,50.5,75,50,31,29.85,29.72,8,1,10,0.00
2014-9-8,89.8,74.1,62.9,62.2,55.3,49.8,72,54,29,29.88,29.76,7,1,11,0.00
2014-9-9,89.5,70.9,53.7,60.6,54.8,47.5,85,60,32,29.99,29.83,6,1,11,0.00
2014-9-10,95.7,76.4,60.1,61.5,54.1,47.3,69,48,30,29.96,29.78,7,1,8,0.00
2014-9-11,97.7,80.5,63.3,61.8,54.3,46.7,66,42,27,29.90,29.76,6,1,9,0.00
2014-9-12,101.7,83.0,68.7,62.3,55.8,48.7,58,41,26,29.87,29.75,7,1,8,0.00
2014-9-13,101.7,84.0,69.7,64.1,58.0,51.2,67,43,28,29.80,29.69,8,1,10,0.00
2014-9-14,100.4,82.7,66.7,66.8,59.3,50.4,65,47,28,29.81,29.72,7,1,9,0.00
2014-9-15,97.2,80.7,68.7,67.2,56.0,54.2,74,46,28,29.87,29.76,8,1,10,0.00
2014-9-16,92.2,76.2,62.8,63.4,57.0,51.8,77,54,33,29.90,29.76,7,1,10,0.00
2014-9-17,93.6,77.1,65.0,82.9,55.9,25.1,100,51,15,29.81,29.68,9,1,11,0.00
2014-9-18,83.1,74.2,66.5,79.3,29.6,46.3,100,32,41,29.87,29.77,8,1,9,0.00
2014-9-19,84.1,72.4,61.0,70.1,63.7,60.5,99,78,57,29.89,29.74,5,1,9,0.00
2014-9-20,89.8,75.8,62.9,71.1,65.9,60.7,93,73,52,29.86,29.76,7,0,9,0.00
2014-9-21,79.6,71.1,64.5,68.7,65.3,62.5,94,82,68,29.94,29.79,6,0,10,0.00
2014-9-22,87.8,71.5,58.6,71.0,65.0,58.6,100,82,53,30.00,29.85,8,0,8,0.00
2014-9-23,90.6,76.4,65.2,68.5,62.9,59.3,86,65,46,29.95,29.80,7,1,9,0.00
2014-9-24,88.3,73.8,62.6,70.9,66.7,60.4,100,81,47,29.94,29.77,10,1,12,0.00
2014-9-25,71.7,65.5,58.5,67.3,62.9,58.5,100,92,70,30.00,29.82,9,1,12,0.00
2014-9-26,75.3,64.1,53.8,64.8,59.1,52.9,100,85,64,29.99,29.83,8,1,12,0.00
2014-9-27,77.2,65.6,55.9,64.2,60.8,55.9,100,86,62,29.91,29.74,7,1,9,0.00
2014-9-28,69.3,62.6,57.1,64.6,60.8,57.1,100,94,78,29.92,29.77,7,0,7,0.00
2014-9-29,80.5,66.0,54.3,66.1,60.5,54.3,100,84,58,30.01,29.89,6,1,7,0.00
2014-9-30,80.8,68.7,58.2,67.6,62.3,58.0,100,82,60,29.95,29.79,11,1,13,0.00
2014-10-1,82.7,67.1,51.6,59.8,54.0,50.7,100,68,35,29.93,29.80,15,3,19,0.00
2014-10-2,87.4,71.5,56.7,58.7,51.8,42.7,74,51,33,30.07,29.91,6,1,9,0.00
2014-10-3,91.3,74.9,62.1,59.2,54.2,49.5,69,51,28,30.11,29.96,7,1,9,0.00
2014-10-4,92.1,76.6,63.9,59.4,55.0,49.9,66,49,30,30.03,29.88,7,1,8,0.00
2014-10-5,92.6,76.7,62.4,62.2,56.4,49.6,69,51,34,29.96,29.83,7,1,8,0.00
2014-10-6,92.5,77.9,64.6,61.2,55.8,47.9,60,48,33,29.92,29.78,6,1,8,0.00
2014-10-7,91.6,76.2,64.2,64.3,58.5,52.7,74,56,37,29.89,29.76,8,1,13,0.00
2014-10-8,91.3,75.2,61.7,58.3,52.7,48.9,67,48,27,29.89,29.76,12,1,14,0.00
2014-10-9,86.7,73.9,62.2,59.5,53.1,47.1,66,49,36,29.91,29.80,7,1,8,0.00
2014-10-10,83.4,71.3,57.1,61.0,55.7,48.9,78,59,43,29.98,29.86,7,1,9,0.00
2014-10-11,84.5,70.3,59.4,63.2,57.9,52.9,83,66,46,29.99,29.86,6,1,7,0.00
2014-10-12,85.0,69.2,52.0,56.7,50.5,44.7,93,56,28,29.94,29.82,19,3,22,0.00
2014-10-13,89.1,74.3,61.2,58.8,49.6,38.9,56,42,33,29.94,29.80,7,1,9,0.00
2014-10-14,76.3,67.2,58.0,63.9,58.2,49.6,100,74,48,29.86,29.72,9,1,10,0.00
2014-10-15,70.1,64.0,59.6,65.3,61.4,59.3,100,92,76,29.99,29.80,5,0,8,0.00
2014-10-16,73.0,63.8,55.8,62.7,54.8,29.8,100,79,67,30.01,29.86,6,0,7,0.00
2014-10-17,73.6,63.3,54.5,60.2,56.1,53.9,100,81,59,29.97,29.88,6,0,7,0.00
2014-10-18,76.4,64.3,54.6,62.8,57.6,53.3,96,80,60,29.98,29.82,10,1,13,0.00
2014-10-19,61.1,60.2,59.4,56.9,56.1,55.5,87,86,85,29.87,29.86,3,0,4,0.00
2014-10-20,73.2,62.9,54.6,66.1,58.9,52.8,100,87,75,29.99,29.84,7,1,9,0.00
2014-10-21,68.7,58.3,49.6,57.8,52.2,5.2,100,83,15,30.08,29.93,13,2,15,0.00
2014-10-22,73.2,61.3,51.4,55.5,52.1,48.5,94,74,48,30.04,29.93,5,0,7,0.00
2014-10-23,73.1,63.7,55.1,60.4,53.2,51.3,98,71,62,30.03,29.91,5,0,6,0.00
2014-10-24,76.5,62.3,49.3,62.5,51.1,46.7,100,74,35,29.96,29.79,6,0,8,0.00
2014-10-25,66.0,61.3,56.3,62.4,59.6,56.3,100,94,83,30.08,29.85,14,2,16,0.00
2014-10-26,66.5,58.2,50.0,59.8,52.8,47.3,100,84,51,30.13,29.98,14,2,15,0.00
2014-10-27,67.8,55.8,44.1,55.8,51.0,44.1,100,85,63,30.06,29.98,6,0,7,0.00
2014-10-28,72.4,59.3,48.2,56.2,51.2,47.1,99,77,45,30.13,30.02,7,1,8,0.00
2014-10-29,75.3,62.7,51.1,60.2,55.7,50.1,98,79,56,30.12,29.95,7,0,8,0.00
2014-10-30,77.5,66.1,57.1,61.2,56.7,52.1,92,73,49,29.97,29.81,4,0,7,0.00
2014-10-31,63.6,59.4,54.4,62.1,58.0,54.4,100,95,83,29.87,29.67,10,1,10,0.00
2014-11-1,60.6,54.7,50.3,56.8,53.1,50.0,100,95,77,30.02,29.67,12,1,12,0.00
2014-11-2,62.7,52.2,42.4,52.4,48.1,42.3,100,87,64,30.15,30.02,11,1,11,0.00
2014-11-3,63.2,52.8,42.4,52.9,46.9,39.3,94,81,64,30.28,30.14,6,0,7,0.00
2014-11-4,50.0,49.7,49.6,48.1,47.8,47.6,94,93,92,30.28,30.27,3,1,4,0.00
2014-11-6,73.3,64.6,55.5,60.6,57.1,52.8,93,78,60,30.31,30.17,5,1,8,0.00
2014-11-7,71.8,60.4,50.0,59.9,54.6,48.1,95,82,63,30.26,30.08,8,1,10,0.00
2014-11-8,73.2,62.3,54.4,62.2,33.2,51.1,94,50,68,30.17,30.00,7,0,7,0.00
2014-11-9,73.4,62.4,54.1,60.7,22.8,54.4,95,32,63,30.05,29.80,7,1,7,0.00
2014-11-10,70.7,60.6,52.6,59.7,54.8,48.7,93,82,63,29.87,29.77,5,0,6,0.00
2014-11-11,63.4,58.1,53.6,59.3,55.7,51.3,100,92,85,29.99,29.82,9,1,11,0.00
2014-11-12,62.2,57.5,53.1,56.2,54.2,52.3,100,89,77,30.07,29.98,5,0,7,0.00
2014-11-14,61.1,59.9,56.1,60.6,59.5,56.1,100,99,97,29.99,29.97,7,1,8,0.00
2014-11-15,62.1,56.2,50.0,58.1,54.0,47.3,100,92,83,30.14,30.05,6,1,8,0.00
2014-11-16,59.7,50.2,38.8,55.0,45.4,34.3,100,84,59,30.25,30.11,8,0,10,0.00
2014-11-17,59.8,49.8,40.9,51.4,46.0,40.9,100,88,63,30.25,30.11,7,0,8,0.00
2014-11-18,60.2,49.5,42.7,51.0,44.1,38.6,93,82,69,30.20,30.08,5,0,6,0.00
2014-11-19,55.2,55.1,54.9,55.2,55.1,54.9,100,100,100,30.16,30.16,5,1,5,0.00
2014-11-20,54.0,52.2,50.3,54.0,52.2,50.3,100,100,100,30.15,30.02,3,0,0,0.07
2014-11-21,57.4,51.1,42.2,56.8,51.0,42.2,100,99,96,30.15,30.06,2,0,0,0.01
2014-11-22,57.4,53.5,47.7,57.4,53.5,47.7,100,100,100,30.28,30.06,5,2,0,0.32
2014-11-23,54.2,47.4,40.3,52.4,47.0,40.3,100,98,89,30.37,30.28,2,0,0,0.01
2014-11-24,57.7,47.7,38.8,50.9,45.5,38.8,100,93,76,30.44,30.05,5,0,8,0.01
2014-11-25,60.6,51.0,43.3,53.3,48.4,42.3,100,91,76,30.23,30.08,6,0,7,0.00
2014-11-26,63.3,52.9,44.1,57.2,51.1,44.1,100,94,80,30.09,29.93,6,0,7,0.00
2014-11-27,65.5,55.9,48.3,58.4,53.0,47.5,100,90,76,29.95,29.77,6,0,6,0.00
2014-11-28,62.4,53.6,45.6,55.6,50.0,42.9,100,88,72,30.08,29.84,8,1,9,0.00
2014-11-29,55.9,53.3,51.0,55.9,53.3,51.0,100,100,100,29.91,29.79,12,2,14,0.53
2014-11-30,55.0,53.1,52.0,55.0,53.1,52.0,100,100,100,30.08,29.78,9,0,9,0.00
2014-12-1,63.3,55.8,50.5,62.9,55.8,50.4,100,100,96,30.20,30.00,7,0,8,0.00
2014-12-2,57.2,52.7,49.2,57.2,52.7,49.2,100,100,100,30.00,29.75,9,1,10,0.00
2014-12-3,61.0,58.0,56.5,61.0,58.0,56.5,100,100,100,29.96,29.77,20,4,27,0.00
2014-12-4,65.8,59.1,55.5,64.4,58.8,55.4,100,99,92,30.08,29.94,8,1,10,0.00
2014-12-5,63.4,58.7,55.1,63.2,58.6,55.1,100,100,96,30.13,30.03,12,2,15,0.00
2014-12-6,66.3,59.2,53.3,64.5,58.9,53.3,100,99,93,30.28,30.13,10,1,14,0.00
2014-12-7,62.4,55.5,49.8,60.9,55.0,49.8,100,98,87,30.27,30.17,6,0,7,0.00
2014-12-8,62.4,55.3,51.2,59.4,54.1,49.6,100,96,85,30.26,30.18,5,0,7,0.00
2014-12-9,58.0,53.1,48.6,56.8,52.4,48.6,100,98,91,30.29,30.12,10,0,11,0.00
2014-12-10,62.2,54.3,48.1,57.2,52.3,48.1,100,94,70,30.15,29.75,13,2,19,0.00
2014-12-11,61.5,57.5,51.5,57.3,54.0,51.5,100,89,72,29.79,29.56,32,6,32,0.00
2014-12-15,50.7,48.6,47.6,50.1,48.5,47.6,100,100,93,29.71,29.65,14,2,16,0.00
2014-12-16,50.7,49.1,47.9,50.7,49.1,47.9,100,100,100,29.75,29.69,9,2,11,0.00
2014-12-17,52.0,52.0,52.0,52.0,52.0,52.0,100,100,100,30.01,30.01,2,0,6,0.00
2014-12-24,54.2,49.7,42.4,54.2,47.8,41.6,100,93,78,30.17,29.98,14,3,17,0.00
2014-12-25,52.7,43.9,35.2,43.0,32.8,32.7,100,67,58,30.28,30.16,19,3,23,0.00
2014-12-26,55.1,45.8,37.4,42.5,35.0,29.9,83,66,49,30.42,30.25,16,3,17,0.00
2014-12-27,54.9,43.8,36.6,45.9,39.4,32.4,98,85,68,30.54,30.42,7,1,10,0.00
2014-12-28,54.3,44.5,37.0,46.2,41.2,36.0,99,89,71,30.51,30.35,7,0,7,0.00
2014-12-29,47.5,40.5,34.8,44.4,39.6,34.8,100,97,88,30.40,30.24,6,0,8,0.00
2014-12-30,50.3,41.2,32.0,40.6,27.1,17.8,100,64,30,30.36,30.21,30,4,32,0.00
2014-12-31,56.7,40.8,27.7,36.5,27.4,17.1,84,61,32,30.31,30.06,11,2,17,0.00
2015-1-1,50.1,39.4,31.1,40.3,34.7,29.3,95,84,67,30.21,30.11,6,0,9,0.00
2015-1-2,35.1,33.4,31.6,33.4,31.8,29.6,95,94,92,30.22,30.20,3,0,5,0.00